NH42 weather

C.S.S. Heliport
Nashua, New Hampshire, United States

Public forecast

Using degrees Fahrenheit for public forecast. Weather courtesy of forecast.io.

Closest aviation weather report (METAR) to C.S.S. Heliport

Closest report is Boire Field, 3.1 nm (5.7 km) NNW. Retrieved 2019/12/09 08:56 UTC (1 hour ago):

KASH 090856Z AUTO 12003KT 10SM OVC034 02/01 A3025 RMK AO2 SLP248 T00220011 58006

Closest aviation forecast (TAF) to C.S.S. Heliport

Closest forecast is Manchester-Boston Regional Airport, 11.9 nm (22.1 km) N. Retrieved 2019/12/09 06:42 UTC (3 hours ago):

TAF KMHT 090539Z 0906/1006 19006KT P6SM OVC070 WS020/22045KT FM091300 VRB04KT P6SM OVC025 WS020/22035KT FM091500 VRB04KT 3SM -RA OVC009 WS020/21040KT FM091900 16005KT 1/2SM RA FG OVC003 WS020/21045KT